Time,TemperatureF,DewpointF,PressureIn,WindDirection,WindDirectionDegrees,WindSpeedMPH,WindSpeedGustMPH,Humidity,HourlyPrecipIn,Conditions,Clouds,dailyrainin,SoftwareType,DateUTC
2013-01-03 00:02:00,34.0,7.0,30.17,SW,225,0.0,3.0,32,0.00,,,0.00,,2013-01-03 08:02:00,
2013-01-03 00:11:00,34.0,7.0,30.17,SW,225,0.0,3.0,32,0.00,,,0.00,,2013-01-03 08:11:00,
2013-01-03 00:22:00,33.0,6.0,30.17,SW,225,0.0,3.0,32,0.00,,,0.00,,2013-01-03 08:22:00,
2013-01-03 00:32:00,32.0,6.0,30.17,SW,225,0.0,3.0,32,0.00,,,0.00,,2013-01-03 08:32:00,
2013-01-03 00:42:00,32.0,6.0,30.17,SW,225,0.0,3.0,32,0.00,,,0.00,,2013-01-03 08:42:00,
2013-01-03 00:53:00,31.0,7.0,30.17,SW,225,0.0,4.0,35,0.00,,,0.00,,2013-01-03 08:53:00,
2013-01-03 01:02:00,30.0,6.0,30.18,SW,225,2.0,3.0,36,0.00,,,0.00,,2013-01-03 09:02:00,
2013-01-03 01:11:00,30.0,6.0,30.18,SW,225,2.0,3.0,36,0.00,,,0.00,,2013-01-03 09:11:00,
2013-01-03 01:22:00,30.0,6.0,30.18,SW,227,2.0,6.0,35,0.00,,,0.00,,2013-01-03 09:22:00,
2013-01-03 01:33:00,30.0,6.0,30.18,SW,229,5.0,7.0,36,0.00,,,0.00,,2013-01-03 09:33:00,
2013-01-03 01:42:00,30.0,6.0,30.18,SW,229,5.0,7.0,36,0.00,,,0.00,,2013-01-03 09:42:00,
2013-01-03 01:52:00,31.0,7.0,30.19,SW,229,3.0,4.0,36,0.00,,,0.00,,2013-01-03 09:52:00,
2013-01-03 02:01:00,31.0,7.0,30.18,SW,228,4.0,6.0,36,0.00,,,0.00,,2013-01-03 10:01:00,
2013-01-03 02:11:00,31.0,7.0,30.18,SW,228,4.0,6.0,36,0.00,,,0.00,,2013-01-03 10:11:00,
2013-01-03 02:22:00,32.0,8.0,30.18,SW,227,2.0,3.0,36,0.00,,,0.00,,2013-01-03 10:22:00,
2013-01-03 02:32:00,33.0,8.0,30.18,SW,227,0.0,2.0,35,0.00,,,0.00,,2013-01-03 10:32:00,
2013-01-03 02:42:00,33.0,8.0,30.18,SW,227,0.0,2.0,35,0.00,,,0.00,,2013-01-03 10:42:00,
2013-01-03 02:52:00,33.0,8.0,30.18,SW,227,0.0,0.0,34,0.00,,,0.00,,2013-01-03 10:52:00,
2013-01-03 03:01:00,33.0,7.0,30.18,WSW,244,0.0,5.0,33,0.00,,,0.00,,2013-01-03 11:01:00,
2013-01-03 03:11:00,33.0,7.0,30.18,WSW,244,0.0,5.0,33,0.00,,,0.00,,2013-01-03 11:11:00,
2013-01-03 03:22:00,32.0,7.0,30.18,WSW,244,0.0,2.0,35,0.00,,,0.00,,2013-01-03 11:22:00,
2013-01-03 03:32:00,31.0,7.0,30.18,WSW,244,0.0,0.0,36,0.00,,,0.00,,2013-01-03 11:32:00,
2013-01-03 03:42:00,31.0,7.0,30.18,WSW,244,0.0,0.0,36,0.00,,,0.00,,2013-01-03 11:42:00,
2013-01-03 03:53:00,30.0,8.0,30.18,WSW,242,0.0,4.0,38,0.00,,,0.00,,2013-01-03 11:53:00,
2013-01-03 04:02:00,30.0,7.0,30.18,West,260,5.0,7.0,37,0.00,,,0.00,,2013-01-03 12:02:00,
2013-01-03 04:12:00,30.0,7.0,30.18,West,260,5.0,7.0,37,0.00,,,0.00,,2013-01-03 12:12:00,
2013-01-03 04:22:00,29.0,5.0,30.18,West,260,3.0,4.0,36,0.00,,,0.00,,2013-01-03 12:22:00,
2013-01-03 04:32:00,29.0,6.0,30.19,SW,236,3.0,4.0,37,0.00,,,0.00,,2013-01-03 12:32:00,
2013-01-03 04:42:00,29.0,6.0,30.19,SW,236,3.0,4.0,37,0.00,,,0.00,,2013-01-03 12:42:00,
2013-01-03 04:53:00,29.0,6.0,30.20,WSW,249,3.0,4.0,37,0.00,,,0.00,,2013-01-03 12:53:00,
2013-01-03 05:02:00,28.0,6.0,30.20,West,268,0.0,5.0,38,0.00,,,0.00,,2013-01-03 13:02:00,
2013-01-03 05:12:00,28.0,6.0,30.20,West,268,0.0,5.0,38,0.00,,,0.00,,2013-01-03 13:12:00,
2013-01-03 05:22:00,27.0,6.0,30.20,West,265,0.0,4.0,40,0.00,,,0.00,,2013-01-03 13:22:00,
2013-01-03 05:32:00,27.0,6.0,30.20,West,268,1.0,6.0,40,0.00,,,0.00,,2013-01-03 13:32:00,
2013-01-03 05:42:00,27.0,6.0,30.20,West,268,1.0,6.0,40,0.00,,,0.00,,2013-01-03 13:42:00,
2013-01-03 05:53:00,27.0,5.0,30.21,West,268,0.0,0.0,39,0.00,,,0.00,,2013-01-03 13:53:00,
2013-01-03 06:02:00,26.0,5.0,30.21,West,268,0.0,0.0,40,0.00,,,0.00,,2013-01-03 14:02:00,
2013-01-03 06:12:00,26.0,5.0,30.21,West,268,0.0,0.0,40,0.00,,,0.00,,2013-01-03 14:12:00,
2013-01-03 06:22:00,26.0,6.0,30.22,West,268,0.0,2.0,42,0.00,,,0.00,,2013-01-03 14:22:00,
2013-01-03 06:32:00,26.0,6.0,30.22,West,259,4.0,5.0,42,0.00,,,0.00,,2013-01-03 14:32:00,
2013-01-03 06:42:00,26.0,6.0,30.22,West,259,4.0,5.0,42,0.00,,,0.00,,2013-01-03 14:42:00,
2013-01-03 06:53:00,26.0,7.0,30.22,NW,305,3.0,7.0,43,0.00,,,0.00,,2013-01-03 14:53:00,
2013-01-03 07:02:00,26.0,7.0,30.22,NW,305,0.0,1.0,43,0.00,,,0.00,,2013-01-03 15:02:00,
2013-01-03 07:12:00,26.0,7.0,30.22,NW,305,0.0,1.0,43,0.00,,,0.00,,2013-01-03 15:12:00,
2013-01-03 07:22:00,27.0,7.0,30.24,NW,305,0.0,0.0,42,0.00,,,0.00,,2013-01-03 15:22:00,
2013-01-03 07:32:00,27.0,5.0,30.24,NW,305,0.0,2.0,39,0.00,,,0.00,,2013-01-03 15:32:00,
2013-01-03 07:42:00,27.0,5.0,30.24,NW,305,0.0,2.0,39,0.00,,,0.00,,2013-01-03 15:42:00,
2013-01-03 07:53:00,26.0,6.0,30.25,NW,305,0.0,0.0,41,0.00,,,0.00,,2013-01-03 15:53:00,
2013-01-03 08:02:00,27.0,7.0,30.26,NW,305,0.0,0.0,42,0.00,,,0.00,,2013-01-03 16:02:00,
2013-01-03 08:11:00,27.0,7.0,30.26,NW,305,0.0,0.0,42,0.00,,,0.00,,2013-01-03 16:11:00,
2013-01-03 08:22:00,29.0,8.0,30.27,NW,305,0.0,0.0,40,0.00,,,0.00,,2013-01-03 16:22:00,
2013-01-03 08:32:00,30.0,8.0,30.27,NW,305,0.0,0.0,39,0.00,,,0.00,,2013-01-03 16:32:00,
2013-01-03 08:42:00,30.0,8.0,30.27,NW,305,0.0,0.0,39,0.00,,,0.00,,2013-01-03 16:42:00,
2013-01-03 08:53:00,32.0,9.0,30.28,NW,305,0.0,0.0,37,0.00,,,0.00,,2013-01-03 16:53:00,
2013-01-03 09:02:00,33.0,9.0,30.28,NW,305,1.0,2.0,36,0.00,,,0.00,,2013-01-03 17:02:00,
2013-01-03 09:12:00,33.0,9.0,30.28,NW,305,1.0,2.0,36,0.00,,,0.00,,2013-01-03 17:12:00,
2013-01-03 09:32:00,40.0,12.0,30.29,NW,305,0.0,0.0,31,0.00,,,0.00,,2013-01-03 17:32:00,
2013-01-03 09:42:00,40.0,12.0,30.29,NW,305,0.0,0.0,31,0.00,,,0.00,,2013-01-03 17:42:00,
2013-01-03 09:53:00,43.0,12.0,30.31,NW,305,2.0,3.0,28,0.00,,,0.00,,2013-01-03 17:53:00,
2013-01-03 10:02:00,44.0,12.0,30.31,NW,305,1.0,2.0,27,0.00,,,0.00,,2013-01-03 18:02:00,
2013-01-03 10:22:00,46.0,13.0,30.31,NW,304,1.0,2.0,26,0.00,,,0.00,,2013-01-03 18:22:00,
2013-01-03 10:32:00,46.0,13.0,30.32,NW,305,0.0,2.0,26,0.00,,,0.00,,2013-01-03 18:32:00,
2013-01-03 10:53:00,47.0,14.0,30.31,NW,308,1.0,4.0,26,0.00,,,0.00,,2013-01-03 18:53:00,
2013-01-03 11:02:00,47.0,13.0,30.30,NW,307,0.0,2.0,25,0.00,,,0.00,,2013-01-03 19:02:00,
2013-01-03 11:12:00,47.0,13.0,30.30,NW,307,0.0,2.0,25,0.00,,,0.00,,2013-01-03 19:12:00,
2013-01-03 11:56:00,52.0,14.0,30.28,NW,317,2.0,4.0,22,0.00,,,0.00,,2013-01-03 19:56:00,
2013-01-03 12:02:00,51.0,15.0,30.27,NW,325,1.0,5.0,23,0.00,,,0.00,,2013-01-03 20:02:00,
2013-01-03 12:12:00,51.0,15.0,30.27,NW,325,1.0,5.0,23,0.00,,,0.00,,2013-01-03 20:12:00,
2013-01-03 12:22:00,52.0,15.0,30.27,NNE,27,0.0,5.0,23,0.00,,,0.00,,2013-01-03 20:22:00,
2013-01-03 12:32:00,53.0,15.0,30.26,NNE,32,2.0,5.0,22,0.00,,,0.00,,2013-01-03 20:32:00,
2013-01-03 12:42:00,53.0,15.0,30.26,NNE,32,2.0,5.0,22,0.00,,,0.00,,2013-01-03 20:42:00,
2013-01-03 12:53:00,54.0,15.0,30.25,ENE,61,1.0,6.0,21,0.00,,,0.00,,2013-01-03 20:53:00,
2013-01-03 13:02:00,54.0,15.0,30.24,NE,40,4.0,6.0,21,0.00,,,0.00,,2013-01-03 21:02:00,
2013-01-03 13:12:00,54.0,15.0,30.24,NE,40,4.0,6.0,21,0.00,,,0.00,,2013-01-03 21:12:00,
2013-01-03 13:22:00,55.0,16.0,30.24,NE,44,1.0,6.0,21,0.00,,,0.00,,2013-01-03 21:22:00,
2013-01-03 13:33:00,55.0,15.0,30.24,ENE,70,2.0,9.0,20,0.00,,,0.00,,2013-01-03 21:33:00,
2013-01-03 13:45:00,55.0,15.0,30.24,ENE,70,2.0,9.0,20,0.00,,,0.00,,2013-01-03 21:45:00,
2013-01-03 13:53:00,56.0,14.0,30.23,NE,56,3.0,6.0,19,0.00,,,0.00,,2013-01-03 21:53:00,
2013-01-03 14:02:00,56.0,14.0,30.23,ENE,59,3.0,6.0,19,0.00,,,0.00,,2013-01-03 22:02:00,
2013-01-03 14:12:00,56.0,14.0,30.23,ENE,59,3.0,6.0,19,0.00,,,0.00,,2013-01-03 22:12:00,
2013-01-03 14:22:00,57.0,14.0,30.22,NE,51,1.0,7.0,18,0.00,,,0.00,,2013-01-03 22:22:00,
2013-01-03 14:32:00,57.0,14.0,30.22,NE,40,0.0,4.0,18,0.00,,,0.00,,2013-01-03 22:32:00,
2013-01-03 14:42:00,57.0,14.0,30.22,NE,40,0.0,4.0,18,0.00,,,0.00,,2013-01-03 22:42:00,
2013-01-03 14:52:00,56.0,13.0,30.22,ENE,57,0.0,7.0,18,0.00,,,0.00,,2013-01-03 22:52:00,
2013-01-03 15:02:00,56.0,13.0,30.22,ENE,68,3.0,7.0,18,0.00,,,0.00,,2013-01-03 23:02:00,
2013-01-03 15:12:00,56.0,13.0,30.22,ENE,68,3.0,7.0,18,0.00,,,0.00,,2013-01-03 23:12:00,
2013-01-03 15:22:00,56.0,13.0,30.22,NE,55,2.0,7.0,18,0.00,,,0.00,,2013-01-03 23:22:00,
2013-01-03 15:32:00,55.0,12.0,30.22,NE,38,4.0,7.0,18,0.00,,,0.00,,2013-01-03 23:32:00,
2013-01-03 15:42:00,55.0,12.0,30.22,NE,38,4.0,7.0,18,0.00,,,0.00,,2013-01-03 23:42:00,
2013-01-03 15:53:00,55.0,12.0,30.22,ENE,72,5.0,7.0,18,0.00,,,0.00,,2013-01-03 23:53:00,
2013-01-03 16:02:00,55.0,12.0,30.22,NE,38,4.0,6.0,18,0.00,,,0.00,,2013-01-04 00:02:00,
2013-01-03 16:12:00,55.0,12.0,30.22,NE,38,4.0,6.0,18,0.00,,,0.00,,2013-01-04 00:12:00,
2013-01-03 16:22:00,54.0,11.0,30.22,ENE,66,4.0,5.0,18,0.00,,,0.00,,2013-01-04 00:22:00,
2013-01-03 16:32:00,53.0,11.0,30.22,ENE,61,1.0,5.0,18,0.00,,,0.00,,2013-01-04 00:32:00,
2013-01-03 16:42:00,53.0,11.0,30.22,ENE,61,1.0,5.0,18,0.00,,,0.00,,2013-01-04 00:42:00,
2013-01-03 16:52:00,52.0,10.0,30.23,ENE,61,1.0,6.0,18,0.00,,,0.00,,2013-01-04 00:52:00,
2013-01-03 17:02:00,52.0,10.0,30.23,ENE,61,1.0,6.0,18,0.00,,,0.00,,2013-01-04 01:02:00,
2013-01-03 17:12:00,52.0,10.0,30.23,ENE,61,1.0,6.0,18,0.00,,,0.00,,2013-01-04 01:12:00,
2013-01-03 17:22:00,49.0,9.0,30.23,ENE,69,3.0,3.0,19,0.00,,,0.00,,2013-01-04 01:22:00,
2013-01-03 17:32:00,48.0,9.0,30.23,ENE,73,3.0,4.0,20,0.00,,,0.00,,2013-01-04 01:32:00,
2013-01-03 17:42:00,48.0,9.0,30.23,ENE,73,3.0,4.0,20,0.00,,,0.00,,2013-01-04 01:42:00,
2013-01-03 17:52:00,46.0,7.0,30.24,SE,127,3.0,4.0,20,0.00,,,0.00,,2013-01-04 01:52:00,
2013-01-03 18:01:00,45.0,6.0,30.24,SE,128,2.0,3.0,20,0.00,,,0.00,,2013-01-04 02:01:00,
2013-01-03 18:12:00,45.0,6.0,30.24,SE,128,2.0,3.0,20,0.00,,,0.00,,2013-01-04 02:12:00,
2013-01-03 18:22:00,43.0,6.0,30.24,SE,144,4.0,5.0,21,0.00,,,0.00,,2013-01-04 02:22:00,
2013-01-03 18:32:00,42.0,5.0,30.24,SSE,149,3.0,5.0,21,0.00,,,0.00,,2013-01-04 02:32:00,
2013-01-03 18:42:00,42.0,5.0,30.24,SSE,149,3.0,5.0,21,0.00,,,0.00,,2013-01-04 02:42:00,
2013-01-03 18:53:00,41.0,4.0,30.25,SSE,150,3.0,4.0,21,0.00,,,0.00,,2013-01-04 02:53:00,
2013-01-03 19:02:00,41.0,4.0,30.25,SSE,150,3.0,4.0,21,0.00,,,0.00,,2013-01-04 03:02:00,
2013-01-03 19:11:00,41.0,4.0,30.25,SSE,150,3.0,4.0,21,0.00,,,0.00,,2013-01-04 03:11:00,
2013-01-03 19:22:00,40.0,3.0,30.25,SSE,152,2.0,3.0,21,0.00,,,0.00,,2013-01-04 03:22:00,
2013-01-03 19:32:00,40.0,4.0,30.25,SSE,152,1.0,2.0,22,0.00,,,0.00,,2013-01-04 03:32:00,
2013-01-03 19:42:00,40.0,4.0,30.25,SSE,152,1.0,2.0,22,0.00,,,0.00,,2013-01-04 03:42:00,
2013-01-03 19:52:00,39.0,3.0,30.26,SSE,152,1.0,2.0,22,0.00,,,0.00,,2013-01-04 03:52:00,
2013-01-03 20:02:00,38.0,4.0,30.26,SSE,152,3.0,3.0,23,0.00,,,0.00,,2013-01-04 04:02:00,
2013-01-03 20:11:00,38.0,4.0,30.26,SSE,152,3.0,3.0,23,0.00,,,0.00,,2013-01-04 04:11:00,
2013-01-03 20:22:00,38.0,4.0,30.24,SSE,152,3.0,4.0,23,0.00,,,0.00,,2013-01-04 04:22:00,
2013-01-03 20:32:00,38.0,4.0,30.24,SSE,152,2.0,4.0,23,0.00,,,0.00,,2013-01-04 04:32:00,
2013-01-03 20:42:00,38.0,4.0,30.24,SSE,152,2.0,4.0,23,0.00,,,0.00,,2013-01-04 04:42:00,
2013-01-03 20:52:00,38.0,4.0,30.24,SSE,152,0.0,0.0,24,0.00,,,0.00,,2013-01-04 04:52:00,
2013-01-03 21:03:00,37.0,3.0,30.25,SSE,152,0.0,0.0,23,0.00,,,0.00,,2013-01-04 05:03:00,
2013-01-03 21:12:00,37.0,3.0,30.25,SSE,152,0.0,0.0,23,0.00,,,0.00,,2013-01-04 05:12:00,
2013-01-03 21:22:00,36.0,4.0,30.25,SSE,152,0.0,0.0,25,0.00,,,0.00,,2013-01-04 05:22:00,
2013-01-03 21:32:00,36.0,4.0,30.25,SSE,152,0.0,0.0,25,0.00,,,0.00,,2013-01-04 05:32:00,
2013-01-03 21:42:00,36.0,4.0,30.25,SSE,152,0.0,0.0,25,0.00,,,0.00,,2013-01-04 05:42:00,
2013-01-03 21:52:00,35.0,3.0,30.25,SSE,152,0.0,0.0,25,0.00,,,0.00,,2013-01-04 05:52:00,
2013-01-03 22:02:00,35.0,3.0,30.25,SSE,152,0.0,0.0,25,0.00,,,0.00,,2013-01-04 06:02:00,
2013-01-03 22:11:00,35.0,3.0,30.25,SSE,152,0.0,0.0,25,0.00,,,0.00,,2013-01-04 06:11:00,
2013-01-03 22:22:00,34.0,2.0,30.26,SSE,152,1.0,2.0,25,0.00,,,0.00,,2013-01-04 06:22:00,
2013-01-03 22:32:00,34.0,2.0,30.26,SSE,152,0.0,3.0,25,0.00,,,0.00,,2013-01-04 06:32:00,
2013-01-03 22:42:00,34.0,2.0,30.26,SSE,152,0.0,3.0,25,0.00,,,0.00,,2013-01-04 06:42:00,
2013-01-03 22:52:00,33.0,2.0,30.26,SSE,152,0.0,0.0,26,0.00,,,0.00,,2013-01-04 06:52:00,
2013-01-03 23:01:00,32.0,1.0,30.26,SSE,152,3.0,3.0,26,0.00,,,0.00,,2013-01-04 07:01:00,
2013-01-03 23:11:00,32.0,1.0,30.26,SSE,152,3.0,3.0,26,0.00,,,0.00,,2013-01-04 07:11:00,
2013-01-03 23:22:00,32.0,2.0,30.26,SSE,152,1.0,3.0,27,0.00,,,0.00,,2013-01-04 07:22:00,
2013-01-03 23:32:00,33.0,3.0,30.26,SSE,152,3.0,4.0,27,0.00,,,0.00,,2013-01-04 07:32:00,
2013-01-03 23:42:00,33.0,3.0,30.26,SSE,152,3.0,4.0,27,0.00,,,0.00,,2013-01-04 07:42:00,
2013-01-03 23:52:00,33.0,2.0,30.26,SSE,163,3.0,5.0,26,0.00,,,0.00,,2013-01-04 07:52:00,